.
WxDataArchive / Data Records for 2016-04-06
2016-04-05 April 2016 2016-04-07

Data Records for Wednesday, 06 April 2016

Time	Temp	Chill	HIndex	Humid	Dewpt	 Wind 	HiWind	WindDir	Rain 	Barom
-----	----	-----	------	-----	-----	------	------	-------	-----	-----
00:00	37.5	37.5	37.5	54	22.4	0	2	112	0.00	30.168 
00:05	37.6	37.6	37.6	54	22.5	1	4	112	0.00	30.168 
00:10	37.6	37.6	37.6	52	21.6	1	5	90	0.00	30.168 
00:15	37.8	37.8	37.8	51	21.3	1	4	112	0.00	30.140 
00:20	37.9	37.9	37.9	51	21.4	2	6	112	0.00	30.140 
00:25	38.0	38.0	38.0	53	22.4	1	6	112	0.00	30.140 
00:30	37.9	37.9	37.9	54	22.8	2	4	90	0.00	30.100 
00:35	37.6	37.6	37.6	55	22.9	2	9	90	0.00	30.100 
00:40	37.3	37.3	37.3	55	22.6	2	6	90	0.00	30.100 
00:45	37.3	37.3	37.3	54	22.2	2	9	112	0.00	30.091 
00:50	37.2	37.2	37.2	53	21.7	2	6	90	0.00	30.091 
00:55	37.2	37.2	37.2	53	21.7	1	6	68	0.00	30.091 
01:00	37.2	37.2	37.2	52	21.2	1	4	90	0.00	30.099 
01:05	37.2	37.2	37.2	52	21.2	1	5	90	0.00	30.099 
01:10	37.2	37.2	37.2	52	21.2	1	5	90	0.00	30.099 
01:15	37.2	37.2	37.2	53	21.7	1	5	90	0.00	30.097 
01:20	37.2	37.2	37.2	53	21.7	1	5	112	0.00	30.097 
01:25	37.2	37.2	37.2	52	21.2	1	4	112	0.00	30.097 
01:30	37.3	37.3	37.3	51	20.9	1	5	90	0.00	30.094 
01:35	37.5	37.5	37.5	50	20.6	2	6	112	0.00	30.094 
01:40	37.6	37.6	37.6	51	21.1	2	6	90	0.00	30.094 
01:45	37.6	37.6	37.6	51	21.1	1	3	90	0.00	30.091 
01:50	37.5	37.5	37.5	51	21.0	1	3	112	0.00	30.091 
01:55	37.5	37.5	37.5	51	21.0	1	3	112	0.00	30.091 
02:00	37.5	37.5	37.5	52	21.5	1	4	112	0.00	30.083 
02:05	37.5	37.5	37.5	52	21.5	1	4	112	0.00	30.083 
02:10	37.5	37.5	37.5	52	21.5	1	3	112	0.00	30.083 
02:15	37.5	37.5	37.5	52	21.5	1	4	90	0.00	30.073 
02:20	37.5	37.5	37.5	51	21.0	1	5	90	0.00	30.073 
02:25	37.6	37.6	37.6	51	21.1	1	4	90	0.00	30.073 
02:30	37.6	37.6	37.6	51	21.1	1	3	135	0.00	30.059 
02:35	37.5	37.5	37.5	51	21.0	1	4	112	0.00	30.059 
02:40	37.5	37.5	37.5	51	21.0	1	3	112	0.00	30.059 
02:45	37.5	37.5	37.5	51	21.0	1	3	112	0.00	30.052 
02:50	37.3	37.3	37.3	51	20.9	1	3	90	0.00	30.052 
02:55	37.3	37.3	37.3	51	20.9	1	3	90	0.00	30.052 
03:00	37.3	37.3	37.3	51	20.9	1	3	112	0.00	30.057 
03:05	37.3	37.3	37.3	51	20.9	1	3	112	0.00	30.057 
03:10	37.3	37.3	37.3	51	20.9	1	3	112	0.00	30.057 
03:15	37.3	37.3	37.3	51	20.9	1	3	112	0.00	30.057 
03:20	37.3	37.3	37.3	51	20.9	1	3	112	0.00	30.057 
03:25	37.2	37.2	37.2	52	21.2	0	3	90	0.00	30.057 
03:30	37.2	37.2	37.2	52	21.2	1	2	90	0.00	30.040 
03:35	37.0	37.0	37.0	52	21.0	1	3	90	0.00	30.040 
03:40	37.0	37.0	37.0	52	21.0	0	4	112	0.00	30.040 
03:45	37.0	37.0	37.0	53	21.5	0	2	112	0.00	30.041 
03:50	37.0	37.0	37.0	53	21.5	0	1	112	0.00	30.041 
03:55	36.9	36.9	36.9	53	21.4	0	2	112	0.00	30.041 
04:00	36.9	36.9	36.9	53	21.4	0	2	112	0.00	30.024 
04:05	36.9	36.9	36.9	53	21.4	0	4	112	0.00	30.024 
04:10	36.9	36.9	36.9	54	21.8	0	2	112	0.00	30.024 
04:15	36.9	36.9	36.9	54	21.8	1	3	112	0.00	29.999 
04:20	36.8	36.8	36.8	54	21.7	1	3	112	0.00	29.999 
04:25	36.8	36.8	36.8	53	21.3	1	3	112	0.00	29.999 
04:30	36.8	36.8	36.8	54	21.7	1	4	90	0.00	29.991 
04:35	36.8	36.8	36.8	53	21.3	1	3	90	0.00	29.991 
04:40	36.9	36.9	36.9	53	21.4	1	4	112	0.00	29.991 
04:45	36.9	36.9	36.9	53	21.4	1	4	90	0.00	29.979 
04:50	36.8	36.8	36.8	53	21.3	1	3	90	0.00	29.979 
04:55	36.8	36.8	36.8	53	21.3	1	3	90	0.00	29.979 
05:00	36.8	36.8	36.8	53	21.3	1	4	112	0.00	29.972 
05:05	36.8	36.8	36.8	54	21.7	0	2	112	0.00	29.972 
05:10	36.8	36.8	36.8	53	21.3	1	3	112	0.00	29.972 
05:15	36.8	36.8	36.8	53	21.3	1	4	135	0.00	29.957 
05:20	36.9	36.9	36.9	53	21.4	1	3	135	0.00	29.957 
05:25	36.9	36.9	36.9	53	21.4	1	3	90	0.00	29.957 
05:30	36.9	36.9	36.9	52	20.9	0	3	112	0.00	29.948 
05:35	37.0	37.0	37.0	51	20.6	1	3	112	0.00	29.948 
05:40	37.2	37.2	37.2	51	20.8	1	2	112	0.00	29.948 
05:45	37.3	37.3	37.3	51	20.9	1	4	90	0.00	29.932 
05:50	37.5	37.5	37.5	50	20.6	1	3	112	0.00	29.932 
05:55	37.5	37.5	37.5	50	20.6	1	4	90	0.00	29.932 
06:00	37.6	37.6	37.6	50	20.7	1	4	112	0.00	29.914 
06:05	37.6	37.6	37.6	50	20.7	1	4	90	0.00	29.914 
06:10	37.6	37.6	37.6	50	20.7	1	5	90	0.00	29.914 
06:15	37.8	37.8	37.8	50	20.8	1	4	135	0.00	29.908 
06:20	37.8	37.8	37.8	50	20.8	1	5	90	0.00	29.908 
06:25	37.9	37.9	37.9	50	20.9	2	6	112	0.00	29.908 
06:30	37.9	37.9	37.9	49	20.5	2	6	90	0.00	29.898 
06:35	38.0	38.0	38.0	49	20.6	2	6	90	0.00	29.898 
06:40	38.2	38.2	38.2	49	20.7	1	5	112	0.00	29.898 
06:45	38.2	38.2	38.2	49	20.7	1	3	112	0.00	29.883 
06:50	38.3	38.3	38.3	49	20.8	1	3	90	0.00	29.883 
06:55	38.5	38.5	38.5	48	20.5	2	5	112	0.00	29.883 
07:00	38.5	38.5	38.5	48	20.5	2	4	112	0.00	29.867 
07:05	38.5	38.5	38.5	48	20.5	1	4	112	0.00	29.867 
07:10	38.5	38.5	38.5	48	20.5	2	5	112	0.00	29.867 
07:15	38.6	38.6	38.6	49	21.1	2	6	112	0.00	29.857 
07:20	38.6	38.6	38.6	49	21.1	1	4	90	0.00	29.857 
07:25	38.8	38.8	38.8	49	21.3	2	6	112	0.00	29.857 
07:30	38.8	38.8	38.8	49	21.3	2	6	90	0.00	29.824 
07:35	38.9	38.9	38.9	48	20.9	3	6	112	0.00	29.824 
07:40	39.2	39.2	39.2	48	21.2	3	8	90	0.00	29.824 
07:45	39.2	39.2	39.2	48	21.2	2	5	90	0.00	29.814 
07:50	39.3	39.3	39.3	49	21.8	2	6	90	0.00	29.814 
07:55	39.5	39.5	39.5	49	21.9	3	10	112	0.00	29.814 
08:00	39.6	39.6	39.6	48	21.5	2	9	112	0.00	29.804 
08:05	39.8	39.8	39.8	49	22.2	2	5	90	0.00	29.804 
08:10	39.9	39.9	39.9	51	23.3	2	5	90	0.00	29.804 
08:15	39.9	39.9	39.9	50	22.8	2	9	112	0.00	29.790 
08:20	40.1	40.1	40.1	50	23.0	2	7	90	0.00	29.790 
08:25	40.3	40.3	40.3	50	23.2	3	6	90	0.00	29.790 
08:30	40.8	40.8	40.8	51	24.1	3	10	112	0.00	29.776 
08:35	40.9	40.9	40.9	53	25.1	2	5	90	0.00	29.776 
08:40	41.1	41.1	41.1	54	25.7	2	6	90	0.00	29.776 
08:45	41.2	41.2	41.2	54	25.8	1	3	90	0.00	29.774 
08:50	41.5	41.5	41.5	53	25.7	3	7	90	0.00	29.774 
08:55	41.6	41.6	41.6	54	26.2	1	4	90	0.00	29.774 
09:00	41.8	41.8	41.8	55	26.8	0	2	112	0.00	29.790 
09:05	41.8	41.8	41.8	55	26.8	1	3	0	0.00	29.790 
09:10	42.1	42.1	42.1	56	27.5	0	3	0	0.00	29.790 
09:15	42.1	42.1	42.1	58	28.4	0	1	0	0.01	29.789 
09:20	42.1	42.1	42.1	60	29.2	0	1	0	0.00	29.789 
09:25	41.9	41.9	41.9	61	29.4	0	3	0	0.00	29.789 
09:30	41.8	41.8	41.8	63	30.1	1	2	0	0.01	29.759 
09:35	41.8	41.8	41.8	64	30.5	1	3	90	0.00	29.759 
09:40	41.6	41.6	41.6	64	30.3	1	5	90	0.00	29.759 
09:45	41.8	41.8	41.8	65	30.9	0	1	90	0.00	29.751 
09:50	41.9	41.9	41.9	66	31.4	0	2	90	0.00	29.751 
09:55	42.1	42.1	42.1	68	32.3	0	3	90	0.01	29.751 
10:00	41.9	41.9	41.9	70	32.8	0	2	90	0.00	29.747 
10:05	41.9	41.9	41.9	71	33.2	1	2	90	0.00	29.747 
10:10	41.9	41.9	41.9	71	33.2	1	3	90	0.00	29.747 
10:15	41.9	41.9	41.9	71	33.2	1	3	90	0.00	29.722 
10:20	41.9	41.9	41.9	70	32.8	1	3	90	0.00	29.722 
10:25	42.1	42.1	42.1	69	32.7	1	5	90	0.00	29.722 
10:30	42.3	42.3	42.3	69	32.9	1	4	90	0.00	29.713 
10:35	42.5	42.5	42.5	71	33.8	1	3	90	0.00	29.713 
10:40	42.8	42.8	42.8	71	34.1	1	3	90	0.00	29.713 
10:45	42.9	42.9	42.9	70	33.8	1	4	112	0.00	29.707 
10:50	43.1	43.1	43.1	71	34.3	1	3	112	0.00	29.707 
10:55	43.2	43.2	43.2	71	34.4	1	5	112	0.00	29.707 
11:00	43.3	43.3	43.3	71	34.5	1	4	112	0.00	29.698 
11:05	43.6	43.6	43.6	72	35.2	0	2	112	0.00	29.698 
11:10	43.8	43.8	43.8	73	35.7	1	3	112	0.01	29.698 
11:15	43.9	43.9	43.9	75	36.5	1	5	112	0.01	29.680 
11:20	44.1	44.1	44.1	75	36.7	1	3	112	0.00	29.680 
11:25	44.5	44.5	44.5	76	37.4	1	2	112	0.00	29.680 
11:30	45.4	45.4	45.4	75	37.9	1	2	112	0.00	29.672 
11:35	46.4	46.4	46.4	73	38.2	0	2	112	0.00	29.672 
11:40	47.3	47.3	47.3	70	38.0	1	3	112	0.00	29.672 
11:45	48.0	48.0	48.0	68	37.9	1	3	112	0.00	29.659 
11:50	48.9	48.9	48.9	66	38.0	0	3	112	0.00	29.659 
11:55	49.8	49.8	49.8	66	38.9	0	1	112	0.00	29.659 
12:00	51.1	51.1	51.1	65	39.7	0	3	112	0.00	29.653 
12:05	52.6	52.6	52.6	59	38.7	2	5	112	0.00	29.653 
12:10	54.2	54.2	54.2	55	38.4	1	3	112	0.00	29.653 
12:15	55.1	55.1	55.1	53	38.3	1	3	90	0.00	29.635 
12:20	55.7	55.7	55.7	50	37.3	1	5	90	0.00	29.635 
12:25	56.0	56.0	56.0	49	37.1	1	4	248	0.00	29.635 
12:30	56.5	56.5	56.5	50	38.1	1	3	315	0.00	29.632 
12:35	56.9	56.9	56.9	47	36.9	1	9	270	0.00	29.632 
12:40	57.3	57.3	57.3	48	37.8	1	3	248	0.00	29.632 
12:45	57.5	57.5	57.5	49	38.5	0	1	248	0.00	29.618 
12:50	57.6	57.6	57.6	46	37.0	1	2	248	0.00	29.618 
12:55	57.6	57.6	57.6	45	36.4	2	5	248	0.00	29.618 
13:00	57.6	57.6	57.6	44	35.8	3	9	248	0.00	29.611 
13:05	57.5	57.5	57.5	46	36.9	2	4	248	0.00	29.611 
13:10	57.5	57.5	57.5	44	35.8	2	5	248	0.00	29.611 
13:15	57.3	57.3	57.3	44	35.6	2	6	248	0.00	29.601 
13:20	57.2	57.2	57.2	46	36.6	1	6	248	0.00	29.601 
13:25	57.2	57.2	57.2	45	36.1	1	5	90	0.00	29.601 
13:30	57.0	57.0	57.0	46	36.4	1	6	248	0.00	29.586 
13:35	57.2	57.2	57.2	46	36.6	1	4	248	0.00	29.586 
13:40	57.8	57.8	57.8	49	38.8	0	2	248	0.00	29.586 
13:45	58.7	58.7	58.7	47	38.5	1	4	248	0.00	29.577 
13:50	59.3	59.3	59.3	45	38.0	2	6	248	0.00	29.577 
13:55	59.5	59.5	59.5	45	38.1	3	10	270	0.00	29.577 
14:00	59.8	59.8	59.8	46	39.0	1	5	68	0.00	29.559 
14:05	59.9	59.9	59.9	44	37.9	2	6	248	0.00	29.559 
14:10	60.1	60.1	60.1	46	39.2	1	6	270	0.00	29.559 
14:15	60.5	60.5	60.5	46	39.6	1	3	270	0.00	29.549 
14:20	60.9	60.9	60.9	44	38.8	2	6	248	0.00	29.549 
14:25	60.7	60.7	60.7	46	39.8	2	8	270	0.00	29.549 
14:30	60.5	60.5	60.5	48	40.7	1	4	248	0.00	29.535 
14:35	61.0	61.0	61.0	47	40.6	1	3	292	0.00	29.535 
14:40	61.3	61.3	61.3	47	40.9	1	4	248	0.00	29.535 
14:45	61.2	61.2	61.2	46	40.3	1	4	270	0.00	29.533 
14:50	61.0	61.0	61.0	47	40.6	0	4	45	0.00	29.533 
14:55	61.0	61.0	61.0	47	40.6	1	6	270	0.00	29.533 
15:00	61.6	61.6	61.6	46	40.6	2	6	248	0.00	29.519 
15:05	62.4	62.4	62.4	46	41.3	2	10	225	0.00	29.519 
15:10	62.6	62.6	62.6	45	41.0	1	5	68	0.00	29.519 
15:15	62.4	62.4	62.4	44	40.2	2	10	248	0.00	29.512 
15:20	62.0	62.0	62.0	45	40.4	2	5	248	0.00	29.512 
15:25	61.6	61.6	61.6	45	40.0	3	10	248	0.00	29.512 
15:30	61.3	61.3	61.3	46	40.3	2	11	248	0.00	29.506 
15:35	61.3	61.3	61.3	46	40.3	2	7	248	0.00	29.506 
15:40	61.3	61.3	61.3	46	40.3	2	9	248	0.00	29.506 
15:45	61.3	61.3	61.3	46	40.3	2	8	248	0.00	29.504 
15:50	61.3	61.3	61.3	46	40.3	3	11	248	0.00	29.504 
15:55	61.3	61.3	61.3	47	40.9	1	3	315	0.00	29.504 
16:00	61.2	61.2	61.2	49	41.9	3	9	248	0.00	29.501 
16:05	61.0	61.0	61.0	49	41.7	2	7	248	0.00	29.501 
16:10	60.7	60.7	60.7	50	41.9	1	5	248	0.00	29.501 
16:15	60.4	60.4	60.4	52	42.7	2	9	248	0.00	29.502 
16:20	60.1	60.1	60.1	52	42.4	2	7	248	0.00	29.502 
16:25	59.8	59.8	59.8	55	43.6	2	10	248	0.00	29.502 
16:30	59.3	59.3	59.3	58	44.5	1	5	248	0.00	29.513 
16:35	58.3	58.3	58.3	63	45.8	2	5	248	0.01	29.513 
16:40	57.5	57.5	57.5	67	46.6	1	3	270	0.00	29.513 
16:45	56.6	56.6	56.6	71	47.3	2	6	248	0.00	29.506 
16:50	56.0	56.0	56.0	74	47.8	2	6	248	0.00	29.506 
16:55	55.6	55.6	55.6	76	48.2	1	7	270	0.01	29.506 
17:00	55.4	55.4	55.4	78	48.7	0	2	270	0.00	29.505 
17:05	55.1	55.1	55.1	80	49.0	1	3	270	0.00	29.505 
17:10	55.0	55.0	55.0	81	49.3	1	3	270	0.01	29.505 
17:15	54.7	54.7	54.7	83	49.6	0	2	270	0.00	29.507 
17:20	54.2	54.2	54.2	83	49.1	1	3	270	0.01	29.507 
17:25	53.8	53.8	53.8	84	49.1	1	3	270	0.00	29.507 
17:30	53.5	53.5	53.5	85	49.1	1	3	270	0.00	29.506 
17:35	53.2	53.2	53.2	86	49.1	0	2	270	0.01	29.506 
17:40	52.8	52.8	52.8	86	48.7	0	4	270	0.01	29.506 
17:45	52.6	52.6	52.6	87	48.8	0	2	270	0.00	29.508 
17:50	52.3	52.3	52.3	88	48.9	0	2	270	0.01	29.508 
17:55	52.2	52.2	52.2	88	48.8	1	4	248	0.00	29.508 
18:00	51.9	51.9	51.9	88	48.5	1	4	248	0.00	29.500 
18:05	51.7	51.7	51.7	89	48.6	1	3	248	0.00	29.500 
18:10	51.6	51.6	51.6	89	48.5	0	3	248	0.01	29.500 
18:15	51.4	51.4	51.4	89	48.3	0	2	248	0.00	29.495 
18:20	51.3	51.3	51.3	90	48.5	1	3	248	0.01	29.495 
18:25	51.3	51.3	51.3	90	48.5	0	4	248	0.01	29.495 
18:30	51.1	51.1	51.1	90	48.3	2	6	248	0.01	29.492 
18:35	51.1	51.1	51.1	90	48.3	1	5	248	0.00	29.492 
18:40	51.0	51.0	51.0	91	48.5	2	4	248	0.01	29.492 
18:45	51.0	51.0	51.0	91	48.5	2	4	248	0.00	29.501 
18:50	50.8	50.8	50.8	91	48.3	1	4	248	0.01	29.501 
18:55	50.4	50.4	50.4	91	47.9	2	5	270	0.01	29.501 
19:00	50.1	50.1	50.1	91	47.6	2	4	270	0.01	29.496 
19:05	49.8	49.8	49.8	91	47.3	1	3	270	0.01	29.496 
19:10	49.5	49.5	49.5	91	47.0	1	3	270	0.01	29.496 
19:15	49.4	49.4	49.4	91	46.9	0	2	270	0.01	29.494 
19:20	49.2	49.2	49.2	92	47.0	0	3	270	0.01	29.494 
19:25	49.1	49.1	49.1	92	46.9	2	4	270	0.01	29.494 
19:30	49.1	49.1	49.1	92	46.9	1	4	270	0.01	29.495 
19:35	48.8	48.8	48.8	92	46.6	3	5	292	0.01	29.495 
19:40	48.2	48.2	48.2	92	46.0	2	5	292	0.00	29.495 
19:45	47.7	47.7	47.7	91	45.2	2	5	315	0.00	29.493 
19:50	47.6	47.6	47.6	91	45.1	1	3	315	0.01	29.493 
19:55	47.4	47.4	47.4	91	44.9	0	1	315	0.00	29.493 
20:00	47.3	47.3	47.3	91	44.8	1	3	315	0.01	29.482 
20:05	47.3	47.3	47.3	92	45.1	0	2	292	0.00	29.482 
20:10	47.3	47.3	47.3	92	45.1	0	1	292	0.01	29.482 
20:15	47.1	47.1	47.1	92	44.9	0	2	292	0.00	29.474 
20:20	47.1	47.1	47.1	92	44.9	0	1	292	0.01	29.474 
20:25	47.1	47.1	47.1	92	44.9	0	0	---	0.00	29.474 
20:30	47.1	47.1	47.1	92	44.9	0	0	---	0.01	29.465 
20:35	47.0	47.0	47.0	92	44.8	0	0	---	0.00	29.465 
20:40	47.0	47.0	47.0	92	44.8	0	0	---	0.01	29.465 
20:45	47.0	47.0	47.0	92	44.8	0	0	---	0.00	29.457 
20:50	47.0	47.0	47.0	92	44.8	0	0	---	0.00	29.457 
20:55	46.8	46.8	46.8	92	44.6	0	1	292	0.01	29.457 
21:00	46.8	46.8	46.8	93	44.9	0	0	---	0.00	29.448 
21:05	46.8	46.8	46.8	93	44.9	0	0	---	0.01	29.448 
21:10	46.8	46.8	46.8	93	44.9	0	0	---	0.00	29.448 
21:15	46.7	46.7	46.7	93	44.8	0	0	---	0.01	29.447 
21:20	46.7	46.7	46.7	93	44.8	0	0	---	0.00	29.447 
21:25	46.7	46.7	46.7	93	44.8	0	1	292	0.00	29.447 
21:30	46.5	46.5	46.5	93	44.6	0	1	292	0.01	29.461 
21:35	46.4	46.4	46.4	93	44.5	0	1	292	0.00	29.461 
21:40	46.2	46.2	46.2	93	44.3	0	1	292	0.00	29.461 
21:45	46.1	46.1	46.1	93	44.2	0	1	292	0.01	29.463 
21:50	46.0	46.0	46.0	93	44.1	0	1	292	0.00	29.463 
21:55	46.0	46.0	46.0	93	44.1	0	2	292	0.01	29.463 
22:00	45.8	45.8	45.8	93	43.9	0	2	292	0.00	29.463 
22:05	45.8	45.8	45.8	93	43.9	0	3	292	0.00	29.463 
22:10	45.8	45.8	45.8	94	44.2	0	1	292	0.00	29.463 
22:15	45.8	45.8	45.8	94	44.2	0	1	292	0.00	29.464 
22:20	45.8	45.8	45.8	94	44.2	0	2	292	0.01	29.464 
22:25	45.8	45.8	45.8	94	44.2	0	1	292	0.00	29.464 
22:30	45.8	45.8	45.8	94	44.2	0	1	292	0.00	29.455 
22:35	45.7	45.7	45.7	94	44.1	0	2	292	0.01	29.455 
22:40	45.7	45.7	45.7	94	44.1	0	1	292	0.00	29.455 
22:45	45.7	45.7	45.7	94	44.1	0	3	292	0.00	29.456 
22:50	45.7	45.7	45.7	94	44.1	0	3	292	0.00	29.456 
22:55	45.7	45.7	45.7	94	44.1	0	2	292	0.00	29.456 
23:00	45.8	45.8	45.8	94	44.2	1	3	292	0.01	29.451 
23:05	45.8	45.8	45.8	94	44.2	0	1	292	0.00	29.451 
23:10	45.8	45.8	45.8	94	44.2	0	2	292	0.00	29.451 
23:15	45.8	45.8	45.8	94	44.2	1	3	292	0.01	29.442 
23:20	45.8	45.8	45.8	94	44.2	1	4	248	0.00	29.442 
23:25	45.8	45.8	45.8	94	44.2	1	3	248	0.01	29.442 
23:30	45.7	45.7	45.7	94	44.1	1	3	248	0.01	29.440 
23:35	45.5	45.5	45.5	94	43.9	1	5	248	0.00	29.440 
23:40	45.4	45.4	45.4	94	43.8	1	4	248	0.01	29.440 
23:45	45.4	45.4	45.4	94	43.8	1	3	248	0.00	29.439 
23:50	45.2	45.2	45.2	94	43.6	1	3	248	0.01	29.439 
23:55	45.2	45.2	45.2	94	43.6	0	2	248	0.00	29.439 

CoCoRaHS
IN-AL-39
A2 Web Hosting
Creative Commons License
GoDaddy
search engine by freefind advanced

loaded 2018-11-16 11:50:17 • last modified 2010-11-18 10:43:29
Privacy PolicyDisclaimer
• wx.awcolley.com is powered by PmWiki v.2002016 •
• all content (unless otherwise noted) © 2018 A W Colley